Time;durP1;ratioP1;P1;durP2;ratioP2;P2;SDS_P1;SDS_P2;PMS_P1;PMS_P2;Temp;Humidity;BMP_temperature;BMP_pressure;BME280_temperature;BME280_humidity;BME280_pressure;Samples;Min_cycle;Max_cycle;Signal;HPM_P1;HPM_P2
2022/09/29 00:00:34;;;;;;;3.30;3.00;;;;;;;;;;5089017;28;20239;-65
2022/09/29 00:03:01;;;;;;;3.90;3.60;;;;;;;;;;5096189;28;20277;-64
2022/09/29 00:05:29;;;;;;;4.00;3.57;;;;;;;;;;5095354;28;20265;-66
2022/09/29 00:07:57;;;;;;;3.80;3.50;;;;;;;;;;5090297;28;20243;-65
2022/09/29 00:10:24;;;;;;;4.43;3.63;;;;;;;;;;5096574;28;20403;-65
2022/09/29 00:12:51;;;;;;;4.30;4.00;;;;;;;;;;5114311;28;20697;-65
2022/09/29 00:15:19;;;;;;;5.13;4.63;;;;;;;;;;5103958;28;20667;-66
2022/09/29 00:17:46;;;;;;;4.93;4.53;;;;;;;;;;5096149;28;20204;-64
2022/09/29 00:20:34;;;;;;;4.10;3.80;;;;;;;;;;5105637;27;20576;-65
2022/09/29 00:23:01;;;;;;;4.10;3.70;;;;;;;;;;5096408;28;20251;-65
2022/09/29 00:25:29;;;;;;;4.37;4.00;;;;;;;;;;5081288;27;20224;-65
2022/09/29 00:27:57;;;;;;;4.10;3.80;;;;;;;;;;5107737;28;20303;-64
2022/09/29 00:30:24;;;;;;;4.23;3.83;;;;;;;;;;5096755;27;20621;-63
2022/09/29 00:32:51;;;;;;;4.57;4.17;;;;;;;;;;5101074;28;20640;-65
2022/09/29 00:35:19;;;;;;;5.23;3.50;;;;;;;;;;5094716;28;20239;-65
2022/09/29 00:37:46;;;;;;;4.30;3.90;;;;;;;;;;5102870;28;20291;-65
2022/09/29 00:40:13;;;;;;;3.70;3.40;;;;;;;;;;5106983;28;20209;-65
2022/09/29 00:42:41;;;;;;;4.97;4.20;;;;;;;;;;5119836;27;20546;-65
2022/09/29 00:45:16;;;;;;;4.63;4.10;;;;;;;;;;5099570;28;20228;-65
2022/09/29 00:47:46;;;;;;;4.57;3.83;;;;;;;;;;5094707;28;20229;-65
2022/09/29 00:50:19;;;;;;;4.33;3.93;;;;;;;;;;5094709;28;20228;-65
2022/09/29 00:52:50;;;;;;;4.60;4.20;;;;;;;;;;5093496;28;20290;-65
2022/09/29 00:55:17;;;;;;;4.17;3.77;;;;;;;;;;5100552;27;20248;-66
2022/09/29 00:57:51;;;;;;;5.93;3.93;;;;;;;;;;5105216;28;20239;-65
2022/09/29 01:00:18;;;;;;;4.70;4.30;;;;;;;;;;5104572;27;20261;-65
2022/09/29 01:02:52;;;;;;;4.93;4.43;;;;;;;;;;5088348;28;20669;-65
2022/09/29 01:05:22;;;;;;;4.80;4.40;;;;;;;;;;5074217;28;20316;-64
2022/09/29 01:07:50;;;;;;;4.77;4.37;;;;;;;;;;5074938;28;20733;-66
2022/09/29 01:10:17;;;;;;;5.17;4.67;;;;;;;;;;5099634;27;20295;-65
2022/09/29 01:12:46;;;;;;;5.13;4.63;;;;;;;;;;5114957;27;20291;-64
2022/09/29 01:15:15;;;;;;;5.73;4.90;;;;;;;;;;5099744;28;20259;-64
2022/09/29 01:17:43;;;;;;;5.30;4.80;;;;;;;;;;5094117;28;20200;-65
2022/09/29 01:20:12;;;;;;;6.00;5.27;;;;;;;;;;5094654;28;20246;-65
2022/09/29 01:22:55;;;;;;;5.40;5.00;;;;;;;;;;5093935;28;20506;-65
2022/09/29 01:25:23;;;;;;;5.87;4.90;;;;;;;;;;5111702;27;20314;-65
2022/09/29 01:27:53;;;;;;;5.47;4.97;;;;;;;;;;5109127;28;20231;-65
2022/09/29 01:30:39;;;;;;;7.03;4.87;;;;;;;;;;5096184;27;20674;-64
2022/09/29 01:33:33;;;;;;;6.67;5.33;;;;;;;;;;5107234;28;20228;-64
2022/09/29 01:36:09;;;;;;;5.87;5.20;;;;;;;;;;5101398;28;20255;-64
2022/09/29 01:38:46;;;;;;;5.73;5.23;;;;;;;;;;5091760;28;20351;-65
2022/09/29 01:41:28;;;;;;;6.20;5.60;;;;;;;;;;5092538;28;20208;-65
2022/09/29 01:44:05;;;;;;;6.00;5.40;;;;;;;;;;5111702;28;20208;-65
2022/09/29 01:46:43;;;;;;;6.30;4.93;;;;;;;;;;5094324;28;20223;-64
2022/09/29 01:49:11;;;;;;;5.83;5.30;;;;;;;;;;5085080;28;20239;-64
2022/09/29 01:52:05;;;;;;;7.03;6.00;;;;;;;;;;5117420;27;20231;-64
2022/09/29 01:54:51;;;;;;;7.37;5.73;;;;;;;;;;5056929;28;20294;-64
2022/09/29 01:57:26;;;;;;;6.53;5.90;;;;;;;;;;5093408;28;20235;-64
2022/09/29 01:59:58;;;;;;;6.67;5.87;;;;;;;;;;5098978;28;20249;-64
2022/09/29 02:02:29;;;;;;;6.80;6.10;;;;;;;;;;5093797;28;20215;-65
2022/09/29 02:04:59;;;;;;;7.30;6.20;;;;;;;;;;5089564;28;20295;-65
2022/09/29 02:07:32;;;;;;;7.07;6.47;;;;;;;;;;5100080;28;20294;-65
2022/09/29 02:10:02;;;;;;;7.27;6.53;;;;;;;;;;5110331;28;20230;-63
2022/09/29 02:12:32;;;;;;;6.83;6.13;;;;;;;;;;5104046;27;20234;-65
2022/09/29 02:15:00;;;;;;;8.13;7.03;;;;;;;;;;5099379;28;20306;-65
2022/09/29 02:17:32;;;;;;;8.10;6.60;;;;;;;;;;5093641;28;20666;-64
2022/09/29 02:19:59;;;;;;;6.83;6.23;;;;;;;;;;5091760;28;20304;-65
2022/09/29 02:22:27;;;;;;;7.93;5.77;;;;;;;;;;5095392;27;20267;-65
2022/09/29 02:24:57;;;;;;;7.30;6.60;;;;;;;;;;5113844;27;20313;-65
2022/09/29 02:27:27;;;;;;;7.37;6.67;;;;;;;;;;5103203;28;20595;-64
2022/09/29 02:29:55;;;;;;;7.20;6.50;;;;;;;;;;5093532;28;20594;-64
2022/09/29 02:32:23;;;;;;;7.77;6.17;;;;;;;;;;5100743;28;20192;-65
2022/09/29 02:34:51;;;;;;;6.90;6.20;;;;;;;;;;5093510;28;20303;-65
2022/09/29 02:37:37;;;;;;;7.10;6.40;;;;;;;;;;5102505;28;20292;-65
2022/09/29 02:40:17;;;;;;;6.10;5.50;;;;;;;;;;5079682;28;20677;-64
2022/09/29 02:43:11;;;;;;;7.70;5.13;;;;;;;;;;5080101;28;20241;-65
2022/09/29 02:45:44;;;;;;;6.00;5.20;;;;;;;;;;5098824;28;20652;-65
2022/09/29 02:48:27;;;;;;;5.60;5.10;;;;;;;;;;5093623;28;20201;-65
2022/09/29 02:51:01;;;;;;;6.90;4.73;;;;;;;;;;5092867;28;20279;-64
2022/09/29 02:53:34;;;;;;;6.73;4.93;;;;;;;;;;5110962;28;20199;-65
2022/09/29 02:56:14;;;;;;;6.00;4.90;;;;;;;;;;5092146;28;20262;-65
2022/09/29 02:58:41;;;;;;;4.73;4.33;;;;;;;;;;5093652;28;20247;-65
2022/09/29 03:01:15;;;;;;;6.17;5.27;;;;;;;;;;5086855;28;20239;-65
2022/09/29 03:03:43;;;;;;;6.23;5.63;;;;;;;;;;5130649;27;20203;-64
2022/09/29 03:06:11;;;;;;;7.10;6.40;;;;;;;;;;5092282;28;20228;-65
2022/09/29 03:08:38;;;;;;;6.93;6.23;;;;;;;;;;5093028;28;20239;-65
2022/09/29 03:11:06;;;;;;;6.80;6.10;;;;;;;;;;5092876;28;20674;-65
2022/09/29 03:13:33;;;;;;;8.20;6.83;;;;;;;;;;5087991;27;20228;-63
2022/09/29 03:16:00;;;;;;;7.77;6.70;;;;;;;;;;5097042;28;20223;-64
2022/09/29 03:18:28;;;;;;;8.60;6.63;;;;;;;;;;5093040;28;20352;-65
2022/09/29 03:20:55;;;;;;;7.43;6.73;;;;;;;;;;5110573;28;20294;-65
2022/09/29 03:23:22;;;;;;;7.83;5.80;;;;;;;;;;5093051;28;20250;-65
2022/09/29 03:25:50;;;;;;;5.87;5.37;;;;;;;;;;5093263;28;20319;-65
2022/09/29 03:28:17;;;;;;;6.77;5.63;;;;;;;;;;5100770;28;20649;-65
2022/09/29 03:30:44;;;;;;;7.10;6.40;;;;;;;;;;5091523;28;20657;-64
2022/09/29 03:33:12;;;;;;;7.30;6.57;;;;;;;;;;5092647;28;20214;-64
2022/09/29 03:35:39;;;;;;;9.57;7.40;;;;;;;;;;5092318;28;20323;-64
2022/09/29 03:38:10;;;;;;;8.20;6.67;;;;;;;;;;5093475;28;20184;-65
2022/09/29 03:40:38;;;;;;;8.47;7.60;;;;;;;;;;5092357;28;20214;-64
2022/09/29 03:43:05;;;;;;;7.33;6.63;;;;;;;;;;5110828;28;20627;-64
2022/09/29 03:45:32;;;;;;;8.47;6.87;;;;;;;;;;5088330;28;20315;-65
2022/09/29 03:48:00;;;;;;;9.17;7.40;;;;;;;;;;5090773;28;20212;-65
2022/09/29 03:50:27;;;;;;;9.37;6.93;;;;;;;;;;5091750;28;20563;-65
2022/09/29 03:52:54;;;;;;;7.57;6.70;;;;;;;;;;5092097;28;20280;-64
2022/09/29 03:55:21;;;;;;;9.20;7.30;;;;;;;;;;5099191;28;20625;-64
2022/09/29 03:57:49;;;;;;;9.07;7.30;;;;;;;;;;5092792;28;20211;-64
2022/09/29 04:00:16;;;;;;;9.73;6.93;;;;;;;;;;5093117;28;20291;-65
2022/09/29 04:02:43;;;;;;;8.20;7.03;;;;;;;;;;5088213;28;20228;-65
2022/09/29 04:05:10;;;;;;;11.40;10.20;;;;;;;;;;5089994;28;20263;-65
2022/09/29 04:07:38;;;;;;;8.97;8.07;;;;;;;;;;5092298;28;20239;-65
2022/09/29 04:10:05;;;;;;;8.70;7.30;;;;;;;;;;5092353;28;20260;-64
2022/09/29 04:12:33;;;;;;;10.13;7.20;;;;;;;;;;5092205;28;20737;-65
2022/09/29 04:15:00;;;;;;;9.40;7.47;;;;;;;;;;5092964;28;20227;-65
2022/09/29 04:17:27;;;;;;;8.53;7.40;;;;;;;;;;5096101;28;20247;-64
2022/09/29 04:19:55;;;;;;;9.20;7.27;;;;;;;;;;5096004;28;20243;-65
2022/09/29 04:22:22;;;;;;;7.60;6.80;;;;;;;;;;5079950;28;20205;-64
2022/09/29 04:24:50;;;;;;;8.20;6.70;;;;;;;;;;5075516;28;20307;-65
2022/09/29 04:27:18;;;;;;;7.63;6.80;;;;;;;;;;5077626;27;20208;-64
2022/09/29 04:29:45;;;;;;;7.47;6.73;;;;;;;;;;5101854;28;20333;-64
2022/09/29 04:32:12;;;;;;;18.67;13.47;;;;;;;;;;5103562;28;20316;-65
2022/09/29 04:34:40;;;;;;;18.77;13.93;;;;;;;;;;5095634;28;20658;-65
2022/09/29 04:37:11;;;;;;;15.13;11.30;;;;;;;;;;5095185;28;20299;-65
2022/09/29 04:39:38;;;;;;;9.97;8.97;;;;;;;;;;5091832;28;20248;-65
2022/09/29 04:42:06;;;;;;;9.73;8.50;;;;;;;;;;5074970;28;20315;-65
2022/09/29 04:44:33;;;;;;;7.97;7.17;;;;;;;;;;5091572;28;20196;-65
2022/09/29 04:47:00;;;;;;;8.53;7.70;;;;;;;;;;5095018;28;20308;-65
2022/09/29 04:49:28;;;;;;;8.70;7.80;;;;;;;;;;5096133;28;20562;-65
2022/09/29 04:51:55;;;;;;;9.50;7.60;;;;;;;;;;5096808;28;20207;-65
2022/09/29 04:54:22;;;;;;;7.73;6.90;;;;;;;;;;5095723;28;20235;-64
2022/09/29 04:56:50;;;;;;;8.10;7.07;;;;;;;;;;5094879;28;20743;-65
2022/09/29 04:59:18;;;;;;;8.07;7.23;;;;;;;;;;5095802;28;20755;-65
2022/09/29 05:01:45;;;;;;;8.30;7.27;;;;;;;;;;5091588;28;20207;-65
2022/09/29 05:04:12;;;;;;;7.80;7.00;;;;;;;;;;5092062;27;20196;-65
2022/09/29 05:06:40;;;;;;;9.37;7.63;;;;;;;;;;5074249;28;20227;-64
2022/09/29 05:09:08;;;;;;;10.20;7.67;;;;;;;;;;5091227;28;20278;-65
2022/09/29 05:11:35;;;;;;;10.13;7.83;;;;;;;;;;5091731;28;20658;-65
2022/09/29 05:14:02;;;;;;;9.67;8.00;;;;;;;;;;5074726;28;20515;-65
2022/09/29 05:16:29;;;;;;;9.50;8.50;;;;;;;;;;5074378;28;20482;-65
2022/09/29 05:18:57;;;;;;;12.00;9.13;;;;;;;;;;5075105;28;20231;-65
2022/09/29 05:21:24;;;;;;;11.13;9.93;;;;;;;;;;5074972;28;20576;-64
2022/09/29 05:23:55;;;;;;;12.33;9.07;;;;;;;;;;5075381;28;20603;-64
2022/09/29 05:26:22;;;;;;;10.93;9.73;;;;;;;;;;5073984;28;20257;-64
2022/09/29 05:28:50;;;;;;;12.97;9.67;;;;;;;;;;5094900;28;20650;-65
2022/09/29 05:31:17;;;;;;;13.43;10.33;;;;;;;;;;5132107;27;20252;-65
2022/09/29 05:33:45;;;;;;;11.30;9.20;;;;;;;;;;5115236;27;20206;-65
2022/09/29 05:36:12;;;;;;;12.57;9.50;;;;;;;;;;5114686;27;20259;-65
2022/09/29 05:38:40;;;;;;;13.60;10.43;;;;;;;;;;5114971;27;20268;-65
2022/09/29 05:41:09;;;;;;;13.13;9.97;;;;;;;;;;5114780;27;20207;-65
2022/09/29 05:43:37;;;;;;;12.33;10.07;;;;;;;;;;5095369;28;20254;-65
2022/09/29 05:46:05;;;;;;;11.83;9.87;;;;;;;;;;5091842;28;20283;-65
2022/09/29 05:48:33;;;;;;;12.47;10.80;;;;;;;;;;5096835;27;20200;-65
2022/09/29 05:51:05;;;;;;;13.13;10.17;;;;;;;;;;5114255;27;20223;-65
2022/09/29 05:53:33;;;;;;;12.00;10.37;;;;;;;;;;5114283;27;20242;-65
2022/09/29 05:56:04;;;;;;;13.33;10.67;;;;;;;;;;5102319;28;20308;-64
2022/09/29 05:58:31;;;;;;;13.23;11.23;;;;;;;;;;5094390;28;20260;-64
2022/09/29 06:00:59;;;;;;;14.17;11.23;;;;;;;;;;5093448;28;20685;-64
2022/09/29 06:03:26;;;;;;;15.13;11.47;;;;;;;;;;5105431;27;20295;-65
2022/09/29 06:05:53;;;;;;;16.67;11.80;;;;;;;;;;5098526;28;20844;-65
2022/09/29 06:08:21;;;;;;;13.10;10.97;;;;;;;;;;5111919;28;20264;-65
2022/09/29 06:10:48;;;;;;;13.37;10.37;;;;;;;;;;5093626;28;20270;-65
2022/09/29 06:13:15;;;;;;;14.60;11.47;;;;;;;;;;5093774;28;20291;-65
2022/09/29 06:15:42;;;;;;;15.07;10.70;;;;;;;;;;5093316;28;20319;-65
2022/09/29 06:18:10;;;;;;;12.40;10.00;;;;;;;;;;5093215;28;20280;-65
2022/09/29 06:20:37;;;;;;;12.17;9.57;;;;;;;;;;5089692;28;20758;-65
2022/09/29 06:23:04;;;;;;;13.00;10.47;;;;;;;;;;5073038;28;20685;-64
2022/09/29 06:25:32;;;;;;;12.90;10.37;;;;;;;;;;5072908;28;20312;-65
2022/09/29 06:27:59;;;;;;;12.10;10.40;;;;;;;;;;5081446;28;20266;-65
2022/09/29 06:30:26;;;;;;;13.53;11.50;;;;;;;;;;5093562;28;20247;-65
2022/09/29 06:32:55;;;;;;;12.17;10.03;;;;;;;;;;5098397;28;20196;-65
2022/09/29 06:38:08;;;;;;;15.27;11.07;;;;;;;;;;5110961;28;20299;-65
2022/09/29 06:40:35;;;;;;;13.13;10.30;;;;;;;;;;5093330;28;20314;-65
2022/09/29 06:43:03;;;;;;;12.47;9.80;;;;;;;;;;5093708;28;20223;-65
2022/09/29 06:45:30;;;;;;;13.80;10.10;;;;;;;;;;5093666;28;20228;-64
2022/09/29 06:47:59;;;;;;;13.73;9.53;;;;;;;;;;5093673;28;20208;-65
2022/09/29 06:50:26;;;;;;;15.53;11.17;;;;;;;;;;5093732;28;20247;-64
2022/09/29 06:52:53;;;;;;;14.53;10.83;;;;;;;;;;5092666;28;20291;-65
2022/09/29 06:55:30;;;;;;;13.43;9.83;;;;;;;;;;5093634;28;20237;-65
2022/09/29 06:57:58;;;;;;;14.03;10.00;;;;;;;;;;5082086;28;20212;-64
2022/09/29 07:00:30;;;;;;;12.73;9.53;;;;;;;;;;5094060;28;20223;-65
2022/09/29 07:02:57;;;;;;;12.43;9.60;;;;;;;;;;5093407;28;20579;-65
2022/09/29 07:05:25;;;;;;;11.53;9.67;;;;;;;;;;5091337;28;20770;-64
2022/09/29 07:07:54;;;;;;;10.57;9.17;;;;;;;;;;5092212;28;20291;-65
2022/09/29 07:10:27;;;;;;;12.87;9.17;;;;;;;;;;5093374;28;20276;-64
2022/09/29 07:12:54;;;;;;;11.80;9.40;;;;;;;;;;5072206;28;20300;-65
2022/09/29 07:15:21;;;;;;;10.10;9.00;;;;;;;;;;5090280;28;20252;-65
2022/09/29 07:17:52;;;;;;;12.00;9.53;;;;;;;;;;5072184;28;20579;-65
2022/09/29 07:20:19;;;;;;;10.67;8.60;;;;;;;;;;5072456;28;20287;-65
2022/09/29 07:22:47;;;;;;;12.27;10.07;;;;;;;;;;5071937;28;20277;-64
2022/09/29 07:25:14;;;;;;;11.07;9.33;;;;;;;;;;5071435;28;20260;-64
2022/09/29 07:28:00;;;;;;;11.20;9.00;;;;;;;;;;5083354;28;20204;-65
2022/09/29 07:30:27;;;;;;;10.57;8.67;;;;;;;;;;5093051;28;20224;-63
2022/09/29 07:33:05;;;;;;;8.63;7.53;;;;;;;;;;5093847;28;20225;-65
2022/09/29 07:35:33;;;;;;;8.73;7.63;;;;;;;;;;5099758;28;20223;-65
2022/09/29 07:38:06;;;;;;;7.90;6.83;;;;;;;;;;5093110;28;20662;-64
2022/09/29 07:40:33;;;;;;;7.33;6.33;;;;;;;;;;5110714;28;20215;-65
2022/09/29 07:43:00;;;;;;;8.50;6.63;;;;;;;;;;5110378;28;20204;-65
2022/09/29 07:45:28;;;;;;;11.47;7.07;;;;;;;;;;5084192;28;20327;-65
2022/09/29 07:47:56;;;;;;;18.00;9.07;;;;;;;;;;5090240;28;20586;-65
2022/09/29 07:50:23;;;;;;;9.50;7.30;;;;;;;;;;5092036;28;20315;-65
2022/09/29 07:52:51;;;;;;;10.60;7.03;;;;;;;;;;5077345;28;20204;-65
2022/09/29 07:55:20;;;;;;;6.80;5.87;;;;;;;;;;5077652;28;20280;-63
2022/09/29 07:57:47;;;;;;;9.47;7.07;;;;;;;;;;5082224;28;20240;-65
2022/09/29 08:00:16;;;;;;;7.10;6.00;;;;;;;;;;5097711;28;20616;-65
2022/09/29 08:02:43;;;;;;;8.13;5.40;;;;;;;;;;5086728;28;20218;-64
2022/09/29 08:05:10;;;;;;;6.43;5.33;;;;;;;;;;5093148;28;20750;-65
2022/09/29 08:07:38;;;;;;;8.43;6.17;;;;;;;;;;5076075;28;20212;-64
2022/09/29 08:10:05;;;;;;;6.90;6.23;;;;;;;;;;5076237;28;20241;-65
2022/09/29 08:12:43;;;;;;;7.17;6.10;;;;;;;;;;5077394;28;20719;-65
2022/09/29 08:15:11;;;;;;;7.77;5.70;;;;;;;;;;5076118;28;20315;-64
2022/09/29 08:17:38;;;;;;;6.43;5.47;;;;;;;;;;5076354;28;20200;-65
2022/09/29 08:20:05;;;;;;;10.97;5.60;;;;;;;;;;5076413;28;20240;-64
2022/09/29 08:22:33;;;;;;;6.10;5.50;;;;;;;;;;5075886;28;20258;-65
2022/09/29 08:25:00;;;;;;;4.83;4.43;;;;;;;;;;5075892;28;20308;-65
2022/09/29 08:27:28;;;;;;;5.33;4.70;;;;;;;;;;5080735;27;20204;-65
2022/09/29 08:29:57;;;;;;;6.60;5.27;;;;;;;;;;5101117;28;20595;-65
2022/09/29 08:32:24;;;;;;;8.60;5.57;;;;;;;;;;5097387;27;20197;-65
2022/09/29 08:34:52;;;;;;;5.97;5.23;;;;;;;;;;5101408;28;20377;-64
2022/09/29 08:37:19;;;;;;;7.73;5.23;;;;;;;;;;5080355;28;20311;-64
2022/09/29 08:39:46;;;;;;;5.97;4.80;;;;;;;;;;5112082;28;20202;-64
2022/09/29 08:42:34;;;;;;;5.10;4.43;;;;;;;;;;5096062;28;20216;-65
2022/09/29 08:45:24;;;;;;;5.23;4.40;;;;;;;;;;5092761;28;20228;-65
2022/09/29 08:47:53;;;;;;;9.23;4.20;;;;;;;;;;5095147;28;20575;-65
2022/09/29 08:50:50;;;;;;;6.83;3.87;;;;;;;;;;5095226;28;20196;-65
2022/09/29 08:53:20;;;;;;;3.40;3.10;;;;;;;;;;5039848;28;20216;-65
2022/09/29 08:55:57;;;;;;;5.07;3.60;;;;;;;;;;5096708;28;20768;-65
2022/09/29 08:58:24;;;;;;;3.83;2.70;;;;;;;;;;5096338;28;20287;-64
2022/09/29 09:01:10;;;;;;;5.47;3.50;;;;;;;;;;5095746;28;20242;-65
2022/09/29 09:03:58;;;;;;;5.43;3.20;;;;;;;;;;5116977;27;20256;-65
2022/09/29 09:06:32;;;;;;;4.13;3.73;;;;;;;;;;5088107;28;20251;-64
2022/09/29 09:08:59;;;;;;;5.20;4.23;;;;;;;;;;5109208;28;20208;-65
2022/09/29 09:11:43;;;;;;;5.50;4.27;;;;;;;;;;5096005;28;20615;-65
2022/09/29 09:14:37;;;;;;;2.97;2.60;;;;;;;;;;5095327;28;20632;-65
2022/09/29 09:17:24;;;;;;;4.37;3.00;;;;;;;;;;5092137;28;20200;-65
2022/09/29 09:19:57;;;;;;;2.63;2.30;;;;;;;;;;5094656;28;20294;-65
2022/09/29 09:22:34;;;;;;;4.20;3.30;;;;;;;;;;5094806;28;20215;-64
2022/09/29 09:25:07;;;;;;;6.50;3.80;;;;;;;;;;5095062;28;20220;-65
2022/09/29 09:27:40;;;;;;;7.73;5.27;;;;;;;;;;5096784;27;20564;-65
2022/09/29 09:30:15;;;;;;;4.00;3.30;;;;;;;;;;5098049;28;20208;-65
2022/09/29 09:32:49;;;;;;;4.10;2.63;;;;;;;;;;5090090;28;20223;-65
2022/09/29 09:35:32;;;;;;;2.60;2.00;;;;;;;;;;5125221;27;20227;-64
2022/09/29 09:38:02;;;;;;;1.60;1.50;;;;;;;;;;5098267;28;20231;-64
2022/09/29 09:40:36;;;;;;;2.10;1.90;;;;;;;;;;5094439;28;20654;-65
2022/09/29 09:43:30;;;;;;;2.40;1.90;;;;;;;;;;5094662;28;20613;-64
2022/09/29 09:46:03;;;;;;;3.60;2.30;;;;;;;;;;5069787;28;20703;-65
2022/09/29 09:48:53;;;;;;;2.13;1.93;;;;;;;;;;5074030;28;20207;-65
2022/09/29 09:51:40;;;;;;;2.57;2.37;;;;;;;;;;5074273;28;20649;-65
2022/09/29 09:54:16;;;;;;;2.70;2.30;;;;;;;;;;5075551;28;20254;-66
2022/09/29 09:57:03;;;;;;;4.17;3.13;;;;;;;;;;5094151;28;20589;-65
2022/09/29 09:59:31;;;;;;;4.57;2.90;;;;;;;;;;5072150;27;20277;-65
2022/09/29 10:01:58;;;;;;;4.50;3.80;;;;;;;;;;5088868;28;20307;-65
2022/09/29 10:04:25;;;;;;;4.00;2.70;;;;;;;;;;5091644;27;20712;-64
2022/09/29 10:06:53;;;;;;;2.50;2.30;;;;;;;;;;5109046;28;20200;-66
2022/09/29 10:09:20;;;;;;;3.13;2.20;;;;;;;;;;5110533;28;20250;-65
2022/09/29 10:11:48;;;;;;;2.57;2.33;;;;;;;;;;5110589;28;20269;-65
2022/09/29 10:14:18;;;;;;;4.50;3.10;;;;;;;;;;5110339;28;20645;-65
2022/09/29 10:17:04;;;;;;;3.83;2.90;;;;;;;;;;5110254;28;20239;-64
2022/09/29 10:19:50;;;;;;;2.83;2.53;;;;;;;;;;5092355;28;20208;-64
2022/09/29 10:22:18;;;;;;;2.70;2.07;;;;;;;;;;5073797;28;20212;-65
2022/09/29 10:24:47;;;;;;;2.87;1.80;;;;;;;;;;5073336;28;20224;-66
2022/09/29 10:27:18;;;;;;;3.80;2.70;;;;;;;;;;5074621;28;20295;-66
2022/09/29 10:29:48;;;;;;;2.87;1.90;;;;;;;;;;5100154;28;20196;-67
2022/09/29 10:32:35;;;;;;;1.97;1.87;;;;;;;;;;5093546;28;20245;-66
2022/09/29 10:35:09;;;;;;;2.87;2.03;;;;;;;;;;5086242;28;20307;-65
2022/09/29 10:37:39;;;;;;;2.47;1.73;;;;;;;;;;5102207;28;20196;-66
2022/09/29 10:40:09;;;;;;;2.50;1.50;;;;;;;;;;5093771;28;20291;-64
2022/09/29 10:42:38;;;;;;;1.73;1.57;;;;;;;;;;5093492;28;20291;-65
2022/09/29 10:45:34;;;;;;;2.77;2.40;;;;;;;;;;5093460;28;20465;-64
2022/09/29 10:48:04;;;;;;;3.05;1.95;;;;;;;;;;5073134;28;20303;-66
2022/09/29 10:50:38;;;;;;;3.40;2.57;;;;;;;;;;5093632;28;20204;-63
2022/09/29 10:53:19;;;;;;;2.70;1.70;;;;;;;;;;5080068;28;20204;-64
2022/09/29 10:55:47;;;;;;;3.13;1.80;;;;;;;;;;5072831;28;20217;-65
2022/09/29 10:58:21;;;;;;;1.42;1.33;;;;;;;;;;5088328;28;20235;-65
2022/09/29 11:01:11;;;;;;;2.00;1.80;;;;;;;;;;5099513;28;20205;-64
2022/09/29 11:03:41;;;;;;;2.20;1.80;;;;;;;;;;5093735;27;20295;-64
2022/09/29 11:06:10;;;;;;;1.65;1.50;;;;;;;;;;5085648;28;20448;-66
2022/09/29 11:08:57;;;;;;;2.70;1.40;;;;;;;;;;5091869;28;20256;-66
2022/09/29 11:11:26;;;;;;;2.33;1.48;;;;;;;;;;5072871;28;20220;-66
2022/09/29 11:13:54;;;;;;;1.30;1.20;;;;;;;;;;5074529;28;20299;-65
2022/09/29 11:16:29;;;;;;;2.03;1.50;;;;;;;;;;5074651;28;20224;-67
2022/09/29 11:18:58;;;;;;;1.60;1.50;;;;;;;;;;5073323;28;20686;-66
2022/09/29 11:21:26;;;;;;;2.45;1.80;;;;;;;;;;5073085;28;20200;-64
2022/09/29 11:23:59;;;;;;;2.10;1.85;;;;;;;;;;5073303;28;20324;-63
2022/09/29 11:26:35;;;;;;;1.73;1.63;;;;;;;;;;5076984;28;20256;-64
2022/09/29 11:29:16;;;;;;;1.90;1.70;;;;;;;;;;5104298;28;20212;-66
2022/09/29 11:31:43;;;;;;;2.17;1.70;;;;;;;;;;5072446;28;20314;-65
2022/09/29 11:34:11;;;;;;;1.55;1.38;;;;;;;;;;5098457;28;20208;-66
2022/09/29 11:36:49;;;;;;;1.80;1.67;;;;;;;;;;5091799;28;20298;-65
2022/09/29 11:39:29;;;;;;;1.63;1.52;;;;;;;;;;5092696;28;20195;-66
2022/09/29 11:41:56;;;;;;;2.25;1.77;;;;;;;;;;5092846;28;20593;-65
2022/09/29 11:44:45;;;;;;;2.85;1.60;;;;;;;;;;5076217;28;20295;-64
2022/09/29 11:47:16;;;;;;;2.63;1.55;;;;;;;;;;5071875;28;20240;-66
2022/09/29 11:49:43;;;;;;;1.90;1.77;;;;;;;;;;5072001;28;20303;-66
2022/09/29 11:52:29;;;;;;;2.20;1.60;;;;;;;;;;5071887;28;20248;-66
2022/09/29 11:55:04;;;;;;;3.83;1.33;;;;;;;;;;5072137;28;20322;-66
2022/09/29 11:57:50;;;;;;;2.55;1.30;;;;;;;;;;5077755;28;20254;-64
2022/09/29 12:00:19;;;;;;;1.10;1.10;;;;;;;;;;5093985;28;20296;-65
2022/09/29 12:03:05;;;;;;;1.58;1.10;;;;;;;;;;5092563;28;20681;-66
2022/09/29 12:05:56;;;;;;;1.50;1.40;;;;;;;;;;5093909;28;20223;-66
2022/09/29 12:08:42;;;;;;;1.42;1.30;;;;;;;;;;5052312;28;20295;-65
2022/09/29 12:11:23;;;;;;;1.50;1.40;;;;;;;;;;5098695;28;20205;-64
2022/09/29 12:14:18;;;;;;;1.58;1.48;;;;;;;;;;5075482;28;20203;-66
2022/09/29 12:17:08;;;;;;;3.03;1.40;;;;;;;;;;5095843;27;20397;-64
2022/09/29 12:19:38;;;;;;;1.63;1.45;;;;;;;;;;5091579;28;20642;-65
2022/09/29 12:22:09;;;;;;;4.30;1.60;;;;;;;;;;5092560;28;20250;-66
2022/09/29 12:24:42;;;;;;;1.20;1.10;;;;;;;;;;5091441;28;20654;-65
2022/09/29 12:27:31;;;;;;;1.30;1.17;;;;;;;;;;5089997;28;20749;-66
2022/09/29 12:30:04;;;;;;;1.77;1.10;;;;;;;;;;5096285;28;20271;-65
2022/09/29 12:32:38;;;;;;;2.95;1.70;;;;;;;;;;5111916;28;20216;-64
2022/09/29 12:35:17;;;;;;;3.17;1.80;;;;;;;;;;5098437;28;20691;-65
2022/09/29 12:37:49;;;;;;;5.22;2.40;;;;;;;;;;5107827;27;20290;-68
2022/09/29 12:40:22;;;;;;;5.68;2.08;;;;;;;;;;5116189;27;20282;-68
2022/09/29 12:42:58;;;;;;;1.75;1.45;;;;;;;;;;5116653;27;20243;-66
2022/09/29 12:45:47;;;;;;;1.80;1.70;;;;;;;;;;5095242;28;20808;-64
2022/09/29 12:48:33;;;;;;;1.50;1.40;;;;;;;;;;5113152;28;20247;-66
2022/09/29 12:51:24;;;;;;;3.03;1.50;;;;;;;;;;5110794;28;20237;-65
2022/09/29 12:53:57;;;;;;;2.05;1.85;;;;;;;;;;5085556;28;20302;-66
2022/09/29 12:56:28;;;;;;;3.30;1.73;;;;;;;;;;5095563;28;20259;-65
2022/09/29 12:58:58;;;;;;;8.63;5.45;;;;;;;;;;5095301;28;20299;-65
2022/09/29 13:01:29;;;;;;;5.57;3.60;;;;;;;;;;5095587;28;20207;-66
2022/09/29 13:04:15;;;;;;;5.10;4.05;;;;;;;;;;5096133;28;20199;-65
2022/09/29 13:06:49;;;;;;;4.70;3.80;;;;;;;;;;5094889;28;20220;-65
2022/09/29 13:09:26;;;;;;;6.47;3.60;;;;;;;;;;5095448;28;20300;-66
2022/09/29 13:12:16;;;;;;;3.42;1.60;;;;;;;;;;5096239;28;20228;-65
2022/09/29 13:14:56;;;;;;;4.50;2.67;;;;;;;;;;5096084;28;20199;-65
2022/09/29 13:17:26;;;;;;;2.67;2.47;;;;;;;;;;5096212;28;20287;-66
2022/09/29 13:20:26;;;;;;;4.47;2.10;;;;;;;;;;5106087;28;20211;-64
2022/09/29 13:23:12;;;;;;;2.23;2.03;;;;;;;;;;5056147;27;20199;-65
2022/09/29 13:25:44;;;;;;;6.00;4.30;;;;;;;;;;5096815;28;20785;-66
2022/09/29 13:28:23;;;;;;;3.40;2.60;;;;;;;;;;5107317;28;20212;-66
2022/09/29 13:30:51;;;;;;;1.80;1.70;;;;;;;;;;5090391;28;20674;-65
2022/09/29 13:33:24;;;;;;;2.53;2.07;;;;;;;;;;5095165;27;20220;-64
2022/09/29 13:35:52;;;;;;;3.07;2.10;;;;;;;;;;5115807;27;20224;-66
2022/09/29 13:38:22;;;;;;;2.00;1.90;;;;;;;;;;5094837;27;20287;-65
2022/09/29 13:41:08;;;;;;;1.80;1.47;;;;;;;;;;5111490;28;20275;-66
2022/09/29 13:43:38;;;;;;;1.60;1.50;;;;;;;;;;5092717;28;20205;-63
2022/09/29 13:46:24;;;;;;;3.90;1.60;;;;;;;;;;5077715;28;20234;-65
2022/09/29 13:48:53;;;;;;;2.28;2.10;;;;;;;;;;5101540;28;20208;-65
2022/09/29 13:51:27;;;;;;;1.58;1.48;;;;;;;;;;5094296;28;20241;-63
2022/09/29 13:54:20;;;;;;;1.70;1.60;;;;;;;;;;5094611;28;20200;-66
2022/09/29 13:57:06;;;;;;;1.70;1.53;;;;;;;;;;5093909;28;20220;-65
2022/09/29 13:59:34;;;;;;;1.57;1.47;;;;;;;;;;5103865;27;20243;-64
2022/09/29 14:02:17;;;;;;;1.73;1.60;;;;;;;;;;5108591;27;20235;-66
2022/09/29 14:04:53;;;;;;;1.80;1.53;;;;;;;;;;5097359;28;20195;-66
2022/09/29 14:07:36;;;;;;;1.80;1.70;;;;;;;;;;5110629;28;20670;-65
2022/09/29 14:10:17;;;;;;;1.60;1.50;;;;;;;;;;5106624;28;20740;-64
2022/09/29 14:12:47;;;;;;;2.25;1.20;;;;;;;;;;5113322;27;20291;-66
2022/09/29 14:15:20;;;;;;;1.60;1.50;;;;;;;;;;5094798;28;20736;-66
2022/09/29 14:17:53;;;;;;;1.77;1.67;;;;;;;;;;5091705;28;20295;-65
2022/09/29 14:20:22;;;;;;;2.97;1.60;;;;;;;;;;5093416;27;20688;-66
2022/09/29 14:22:56;;;;;;;1.50;1.40;;;;;;;;;;5114080;27;20291;-66
2022/09/29 14:25:27;;;;;;;1.40;1.30;;;;;;;;;;5105150;27;20771;-63
2022/09/29 14:28:04;;;;;;;2.50;1.50;;;;;;;;;;5131400;27;20242;-64
2022/09/29 14:30:34;;;;;;;2.00;1.20;;;;;;;;;;5093576;28;20535;-66
2022/09/29 14:33:05;;;;;;;1.73;1.30;;;;;;;;;;5092487;28;20235;-64
2022/09/29 14:35:33;;;;;;;1.33;1.23;;;;;;;;;;5102156;27;20306;-66
2022/09/29 14:38:12;;;;;;;3.10;1.70;;;;;;;;;;5131999;27;20286;-66
2022/09/29 14:40:53;;;;;;;1.77;1.40;;;;;;;;;;5107652;28;20284;-66
2022/09/29 14:43:21;;;;;;;1.33;1.20;;;;;;;;;;5106493;28;20250;-66
2022/09/29 14:52:11;;;;;;;2.63;1.70;;;;;;;;;;5111309;28;20645;-64
2022/09/29 14:55:08;;;;;;;2.30;2.10;;;;;;;;;;5066010;28;20470;-65
2022/09/29 14:57:35;;;;;;;2.20;2.10;;;;;;;;;;5079615;28;20284;-65
2022/09/29 15:00:06;;;;;;;2.20;2.10;;;;;;;;;;5089761;28;20291;-65
2022/09/29 15:02:37;;;;;;;3.07;2.07;;;;;;;;;;5093146;28;20239;-66
2022/09/29 15:05:23;;;;;;;2.20;2.00;;;;;;;;;;5097581;28;20231;-65
2022/09/29 15:07:57;;;;;;;2.20;2.00;;;;;;;;;;5093390;28;20212;-65
2022/09/29 15:10:45;;;;;;;3.27;2.10;;;;;;;;;;5092934;28;20749;-64
2022/09/29 15:13:19;;;;;;;2.00;1.80;;;;;;;;;;5120630;27;20670;-65
2022/09/29 15:15:47;;;;;;;4.17;1.90;;;;;;;;;;5112756;28;20223;-64
2022/09/29 15:18:22;;;;;;;2.60;2.40;;;;;;;;;;5101046;28;20235;-66
2022/09/29 15:21:17;;;;;;;2.30;2.10;;;;;;;;;;5113253;27;20282;-65